• Join FlightAware (Why Join?)
  • Login
  • US Flag 
09:27AM EDT


 

Airport Tracker/Info


-or-


 

Live Flight TrackerFlight Track Log ✈ DCM7195 ✈ 16-Jul-2013 ✈ KMGY - KJWN

Flight Track Log - Related Links

Times and Time Zones

All times are in EDT time to prevent confusion due to time zone crossing. See the DCM7195 flight status page for this flight to view local times or setup timezone preferences in your user account.

Time Position Orientation Groundspeed Altitude Reporting Facility
EDT Latitude Longitude Course Direction KTS MPH feet Rate Location/Type
11:14AM 39.5236 -84.2272 212° Southwest 160 184 3,700  Level Indianapolis Center
11:15AM 39.4678 -84.2200 174° South 182 209 4,000 1,200 Climbing Indianapolis Center
11:16AM 39.4053 -84.2142 176° South 215 247 6,200 1,920 Climbing Indianapolis Center
11:17AM 39.3525 -84.2075 174° South 199 229 8,000 1,620 Climbing Indianapolis Center
11:18AM 39.3072 -84.2458 213° Southwest 203 234 9,600 1,560 Climbing Indianapolis Center
11:19AM 39.1904 -84.5520 212° Southwest  Level Estimated
11:19AM 39.2717 -84.2953 227° Southwest 191 220 11,300  Level Indianapolis Center
11:20AM 39.2292 -84.3392 219° Southwest 193 222 12,600 1,200 Climbing Indianapolis Center
11:21AM 39.1861 -84.3853 220° Southwest 197 227 13,800 1,320 Climbing Indianapolis Center
11:22AM 39.1383 -84.4428 223° Southwest 200 230 15,400 1,260 Climbing Indianapolis Center
11:23AM 39.0944 -84.4867 218° Southwest 198 228 16,500 1,020 Climbing Indianapolis Center
11:24AM 39.0533 -84.5403 225° Southwest 205 236 17,600 840 Climbing Indianapolis Center
11:25AM 39.0125 -84.5944 226° Southwest 209 241 18,300 720 Climbing Indianapolis Center
11:26AM 38.9639 -84.6383 215° Southwest 212 244 19,100 840 Climbing Indianapolis Center
11:27AM 38.9164 -84.6864 218° Southwest 214 246 20,100 960 Climbing Indianapolis Center
11:28AM 38.8697 -84.7397 222° Southwest 213 245 21,100 780 Climbing Indianapolis Center
11:29AM 38.8264 -84.7922 223° Southwest 214 246 21,800 420 Climbing Indianapolis Center
11:30AM 38.7769 -84.8456 220° Southwest 230 265 22,000 60 Climbing Indianapolis Center
11:31AM 38.7200 -84.9025 218° Southwest 255 293 22,000  Level Indianapolis Center
11:32AM 38.6556 -84.9772 222° Southwest 260 299 22,000  Level Indianapolis Center
11:33AM 38.6033 -85.0331 220° Southwest 267 307 22,000  Level Indianapolis Center
11:34AM 38.5369 -85.1039 220° Southwest 267 307 22,100  Climbing Indianapolis Center
11:35AM 38.4797 -85.1658 220° Southwest 268 308 22,000 -60 Descending Indianapolis Center
11:36AM 38.4289 -85.2239 222° Southwest 267 307 22,000  Level Indianapolis Center
11:37AM 38.3731 -85.2858 221° Southwest 267 307 22,000  Level Indianapolis Center
11:38AM 38.3158 -85.3481 220° Southwest 270 311 22,000  Level Indianapolis Center
11:39AM 38.2486 -85.4203 220° Southwest 265 305 22,000  Level Indianapolis Center
11:40AM 38.1936 -85.4808 221° Southwest 262 302 22,000  Level Indianapolis Center
11:41AM 38.1375 -85.5414 220° Southwest 262 302 22,000  Level Indianapolis Center
11:42AM 38.0706 -85.5831 206° Southwest 258 297 22,000  Level Indianapolis Center
11:44AM 37.9994 -85.5933 186° South 256 295 22,000  Level Indianapolis Center
11:45AM 37.9289 -85.6033 186° South 255 293 22,000  Level Indianapolis Center
11:46AM 37.8586 -85.6128 186° South 254 292 22,000  Level Indianapolis Center
11:47AM 37.7758 -85.6258 187° South 254 292 22,000  Level Indianapolis Center
11:48AM 37.7053 -85.6356 186° South 255 293 22,000  Level Indianapolis Center
11:49AM 37.6342 -85.6456 186° South 257 296 22,000  Level Indianapolis Center
11:50AM 37.5622 -85.6558 186° South 258 297 22,000  Level Indianapolis Center
11:51AM 37.4925 -85.6669 187° South 253 291 22,000  Level Indianapolis Center
11:52AM 37.4219 -85.6767 186° South 254 292 22,000  Level Indianapolis Center
11:53AM 37.3394 -85.6889 187° South 257 296 22,000 -120 Level Indianapolis Center
11:54AM 37.2694 -85.7064 191° South 256 295 21,800 -660 Descending Indianapolis Center
11:55AM 37.2081 -85.7756 222° Southwest 287 330 20,700 -1,140 Descending Indianapolis Center
11:56AM 37.1444 -85.8461 221° Southwest 299 344 19,500 -1,200 Descending Indianapolis Center
11:57AM 37.0797 -85.9164 221° Southwest 303 349 18,300 -1,020 Descending Indianapolis Center
11:58AM 37.0153 -85.9875 221° Southwest 305 351 17,500 -1,140 Descending Indianapolis Center
11:59AM 36.9525 -86.0567 221° Southwest 299 344 16,000 -1,620 Descending Indianapolis Center
12:00PM 36.8872 -86.1269 221° Southwest 306 352 14,200 -1,800 Descending Indianapolis Center
12:01PM 36.8136 -86.2064 221° Southwest 298 343 12,400 -1,620 Descending Indianapolis Center
12:02PM 36.7536 -86.2725 221° Southwest 288 331 10,900 -1,500 Descending Indianapolis Center
12:03PM 36.6933 -86.3383 221° Southwest 287 330 9,400 -1,440 Descending Indianapolis Center
12:04PM 36.6331 -86.4039 221° Southwest 284 327 8,000 -720 Descending Indianapolis Center
12:05PM 36.5881 -86.4756 232° Southwest 265 305 8,000  Level Indianapolis Center
12:06PM 36.5447 -86.5444 232° Southwest 253 291 8,000 -480 Level Indianapolis Center
12:07PM 36.5011 -86.6142 232° Southwest 252 290 7,100 -1,260 Descending Indianapolis Center
12:08PM 36.4425 -86.7067 232° Southwest 273 314 5,300 -1,620 Descending Memphis Center